Forside
METAR-TAF:

METAR-TAF

Lufthavne :

Hōfu, Japan

Breddekreds: 34-02N, længdekreds: 131-33E, højde: 2 m

Aktuelle vejr

Denne rapport blev lavet for 53 minutter siden, kl. 08:14 UTC
Vind 10 kt fra nordnordøst
Temperatur 8°C
Fugtighed 42%
Tryk 1026 hPa
Sigt 10 km eller mere
Nogle få skyer i en højde af 3000 ft
Spredte skyer i en højde af 5000 ft

METAR: RJOF 270814Z 03010KT 9999 FEW030 SCT050 08/M04 Q1026 RMK 1CU030 3SC050 A3032

Tid: 18:07 (09:07 UTC)


TAF: fraværende

Vejrobservationer og prognoser fra mere end 4000 lufthavne (METAR og TAF).

De gule og røde prikker repræsenterer de meteorologiske stationer.

Flyt musen over at se navnet på stationen.

Så klik over at se vejr observationer og prognoser.

At skifte det kort: Klik på de grønne knapper med et sort kors for at zoome ind; på den grønne knap med en bindestreg for at zoome ud; eller på de grønne pile for tilstødende kort.


METAR-TAF: